« 撃鉄2 小松飛行場 2019/10/10 thu | トップページ | 定点 富山空港 2019/10/19 sat »

2019/10/17

定点 富山空港 2019/10/17 thu

前回、台風19号接近中の岩瀬浜のその後。

20191017_rjnt_00iwasehama

当日強風により出来た砂州が、こんなに延びていた。

20191017_rjnt_01iwasehama

残留物はそんなに多くはないが、大きな流木が混じっていた。

20191017_rjnt_02iwasehama

陸地が延びて、テトラポットまで届きそう

RJNT 162300Z VRB01KT 9999 FEW010 BKN/// 13/10 Q1026

20191017_rjnt_03ja606a

北陸新幹線不通により東京便は大型化されている。

20191017_rjnt_04ja606a

ANA313 RJTT-RJNT JA606A B767-381ER

RJNT 170000Z VRB02KT 9999 FEW040 BKN/// 16/12 Q1026

20191017_rjnt_05ja829d

JA829D R66 ↑ 秋は測量シーズン

20191017_rjnt_06ja9427

JA9427 AS350B NNK ↓

20191017_rjnt_07ja6512

JA6512 AS350B3 AKF ↑

20191017_rjnt_08ja606a

まだ川の流れは濁っています。

20191017_rjnt_09ja606a

20191017_rjnt_10ja606a

ANA316 RJNT-RJTT JA606A B767-381ER

RJNT 170100Z 04005KT 350V070 9999 FEW040 BKN/// 17/10 Q1025

20191017_rjnt_11ja9427

JA9427 ↑

20191017_rjnt_12info

本日は、フジドの秋チャーターに青組増便

20191017_rjnt_13ja78an

20191017_rjnt_14ja78an

ANA315 RJTT-RJNT JA78AN B737-881

20191017_rjnt_15ja78an

JA01PWがランナップしてました。

RJNT 170200Z 03007KT 360V070 9999 FEW030 SCT190 BKN/// 17/10 Q1025

20191017_rjnt_16b18667

20191017_rjnt_17b18667

CAL170 RCTP-RJNT B-18667 B737-8AL

20191017_rjnt_18b18667

台湾からのお客様は安定しています。

20191017_rjnt_19ja78an

20191017_rjnt_20ja78an

ANA1181 RJNT-RJCC JA78AN B737-881

RJNT 170300Z 02008KT 330V060 9999 FEW030 SCT190 BKN/// 18/10 Q1025

20191017_rjnt_21ja829d

JA829D ↑

20191017_rjnt_22ja11fj

種子島からの飛来

20191017_rjnt_23ja11fj

FDA8362 RJFG-RJNT JA11FJ ERJ-175STD

20191017_rjnt_24ja11fj

折り返しも種子島 H2見に行きたいねぇ。

20191017_rjnt_25ja9427

JA9427 ↓

20191017_rjnt_26ja13aj

JA13AJ C208 ASK ↓

20191017_rjnt_27ja6512

JA6512 ↓

20191017_rjnt_28b18667

続いて出発

20191017_rjnt_29b18667

CAL171 RJNT-RCTP B-18667 B737-8AL

20191017_rjnt_30ja11fj

20191017_rjnt_31ja11fj

FDA8363 RJNT-RJFG JA11FJ ERJ-175STD

20191017_rjnt_32ja11fj

帰りは土曜日

RJNT 170400Z 36008KT 330V040 9999 FEW030 SCT190 BKN/// 19/11 Q1024

20191017_rjnt_33ja01pw

JA01PW AS350B2 ↑ 西へ

20191017_rjnt_34ja829d

JA829D ↑

20191017_rjnt_35ja113a

臨時便

20191017_rjnt_36ja113a

ANA1141 RJTT-RJNT JA113A A321-211

20191017_rjnt_37ja9427

JA9427 ↑

20191017_rjnt_38ja119w

新「とやま」さん離陸

20191017_rjnt_39ja119w

JA119W AW139 富山県消防防災 

RJNT 170500Z 03006KT 350V080 9999 FEW030 SCT060 BKN/// 19/10 Q1024

20191017_rjnt_40ja113a

20191017_rjnt_41ja113a

ANA1142 RJNT-RJTT JA113A A321-211

20191017_rjnt_42ja113a

明日は臨時便が2往復入ります。

20191017_rjnt_43ja6507

JA6507 AS350B3 AKF ↓

20191017_rjnt_44ja119w

一時間のフライトで帰還

20191017_rjnt_45ja119w

20191017_rjnt_46ja119w

JA119W

RJNT 170600Z 01008KT 320V040 9999 FEW030 SCT070 BKN/// 19/11 Q1024

20191017_rjnt_47ja119w

防災航空隊員を乗せて訓練を始めているようです。

20191017_rjnt_48ja119w

「とやま」さんの顔がチラ

20191017_rjnt_49ja119w

こんなところにステップが

20191017_rjnt_50ja119w

ピストルノズル給油なのね

20191017_rjnt_51ja78an

1182は OWARA

20191017_rjnt_52ja78an

ANA1182 RJCC-RJNT JA78AN B737-881

20191017_rjnt_53ja78an

今日は、チョット長居してしまいました。

 

|

« 撃鉄2 小松飛行場 2019/10/10 thu | トップページ | 定点 富山空港 2019/10/19 sat »

富山空港」カテゴリの記事

コメント

コメントを書く



(ウェブ上には掲載しません)


コメントは記事投稿者が公開するまで表示されません。



« 撃鉄2 小松飛行場 2019/10/10 thu | トップページ | 定点 富山空港 2019/10/19 sat »